Time;durP1;ratioP1;P1;durP2;ratioP2;P2;SDS_P1;SDS_P2;PMS_P1;PMS_P2;Temp;Humidity;BMP_temperature;BMP_pressure;BME280_temperature;BME280_humidity;BME280_pressure;Samples;Min_cycle;Max_cycle;Signal;HPM_P1;HPM_P2
2024/01/22 00:00:24;;;;;;;6.65;5.22;;;6.20;99.90;;;;;;4918742;29;20529;-80
2024/01/22 00:02:51;;;;;;;6.97;5.65;;;6.20;99.90;;;;;;4919118;29;20261;-76
2024/01/22 00:05:21;;;;;;;8.38;6.00;;;6.10;99.90;;;;;;4917452;29;20225;-76
2024/01/22 00:07:48;;;;;;;6.93;5.90;;;6.10;99.90;;;;;;4919379;29;20981;-76
2024/01/22 00:10:16;;;;;;;6.55;5.85;;;6.10;99.90;;;;;;4918299;29;20225;-79
2024/01/22 00:12:45;;;;;;;7.70;6.00;;;6.20;99.90;;;;;;4919169;29;20225;-80
2024/01/22 00:15:14;;;;;;;7.20;6.50;;;6.20;99.90;;;;;;4919068;29;20233;-76
2024/01/22 00:17:41;;;;;;;9.55;7.07;;;6.20;99.90;;;;;;4918900;29;20277;-76
2024/01/22 00:20:09;;;;;;;7.97;6.93;;;6.20;99.90;;;;;;4917539;29;20244;-77
2024/01/22 00:22:36;;;;;;;5.95;5.30;;;6.10;99.90;;;;;;4917991;29;20230;-77
2024/01/22 00:25:04;;;;;;;7.82;5.80;;;6.10;99.90;;;;;;4918912;29;20312;-81
2024/01/22 00:27:33;;;;;;;8.20;5.32;;;6.10;99.90;;;;;;4917851;29;20232;-80
2024/01/22 00:30:07;;;;;;;8.02;6.03;;;6.10;99.90;;;;;;4918745;29;20304;-81
2024/01/22 00:32:35;;;;;;;7.38;5.95;;;6.10;99.90;;;;;;4916673;29;20242;-77
2024/01/22 00:35:05;;;;;;;7.45;5.65;;;6.00;99.90;;;;;;4916488;29;20256;-77
2024/01/22 00:37:42;;;;;;;6.57;5.85;;;6.00;99.90;;;;;;4920775;29;20233;-80
2024/01/22 00:40:12;;;;;;;8.05;5.70;;;6.00;99.90;;;;;;4917334;29;20692;-77
2024/01/22 00:42:40;;;;;;;9.88;5.70;;;6.00;99.90;;;;;;4918081;29;20237;-80
2024/01/22 00:45:09;;;;;;;5.97;5.38;;;6.00;99.90;;;;;;4918160;29;20268;-77
2024/01/22 00:47:38;;;;;;;6.00;5.25;;;6.00;99.90;;;;;;4917539;29;20240;-77
2024/01/22 00:50:06;;;;;;;7.20;6.45;;;6.10;99.90;;;;;;4917688;29;20225;-80
2024/01/22 00:52:33;;;;;;;5.93;5.38;;;6.10;99.90;;;;;;4917969;29;20238;-77
2024/01/22 00:55:00;;;;;;;5.18;4.68;;;6.10;99.90;;;;;;4918443;29;20225;-77
2024/01/22 00:57:27;;;;;;;7.75;6.00;;;6.00;99.90;;;;;;4907738;29;20229;-76
2024/01/22 00:59:55;;;;;;;8.82;5.25;;;6.00;99.90;;;;;;4917872;29;20277;-79
2024/01/22 01:02:23;;;;;;;6.97;5.00;;;6.00;99.90;;;;;;4917556;29;20256;-79
2024/01/22 01:04:50;;;;;;;8.35;5.03;;;6.10;99.90;;;;;;4917608;29;20229;-80
2024/01/22 01:07:17;;;;;;;6.55;5.53;;;6.00;99.90;;;;;;4918252;29;20226;-79
2024/01/22 01:09:44;;;;;;;8.45;5.50;;;6.10;99.90;;;;;;4918059;29;20225;-80
2024/01/22 01:12:11;;;;;;;8.90;4.65;;;6.10;99.90;;;;;;4918409;29;20229;-79
2024/01/22 01:14:38;;;;;;;7.70;5.05;;;6.10;99.90;;;;;;4917556;29;20236;-80
2024/01/22 01:17:05;;;;;;;5.78;4.75;;;6.10;99.90;;;;;;4917389;29;20222;-80
2024/01/22 01:19:35;;;;;;;5.70;4.68;;;6.10;99.90;;;;;;4917418;29;20235;-80
2024/01/22 01:22:03;;;;;;;7.65;5.75;;;6.10;99.90;;;;;;4917525;29;20293;-77
2024/01/22 01:24:30;;;;;;;5.72;5.22;;;6.20;99.90;;;;;;4917855;29;20226;-77
2024/01/22 01:26:57;;;;;;;5.10;4.43;;;6.20;99.90;;;;;;4917222;29;20281;-77
2024/01/22 01:29:24;;;;;;;6.75;5.43;;;6.20;99.90;;;;;;4917491;29;20232;-76
2024/01/22 01:31:52;;;;;;;5.82;5.00;;;6.20;99.90;;;;;;4916164;29;20221;-77
2024/01/22 01:34:19;;;;;;;6.25;4.50;;;6.20;99.90;;;;;;4917548;29;20225;-77
2024/01/22 01:36:47;;;;;;;5.38;4.85;;;6.20;99.90;;;;;;4915763;29;20233;-77
2024/01/22 01:39:14;;;;;;;5.75;4.70;;;6.20;99.90;;;;;;4917675;29;20229;-76
2024/01/22 01:41:41;;;;;;;5.97;4.72;;;6.10;99.90;;;;;;4916855;29;20233;-77
2024/01/22 01:44:08;;;;;;;5.45;3.90;;;6.10;99.90;;;;;;4917339;29;20230;-77
2024/01/22 01:46:35;;;;;;;10.05;4.88;;;6.10;99.90;;;;;;4916367;29;20229;-77
2024/01/22 01:49:03;;;;;;;8.88;4.25;;;6.10;99.90;;;;;;4917337;29;20236;-76
2024/01/22 01:51:30;;;;;;;5.70;4.80;;;6.10;99.90;;;;;;4916834;29;20320;-77
2024/01/22 01:54:00;;;;;;;5.93;4.63;;;6.10;99.90;;;;;;4916539;29;20225;-77
2024/01/22 01:56:30;;;;;;;5.80;4.13;;;6.10;99.90;;;;;;4916998;29;20237;-77
2024/01/22 01:58:58;;;;;;;4.97;4.50;;;6.20;99.90;;;;;;4916593;29;20228;-77
2024/01/22 02:01:25;;;;;;;5.85;4.90;;;6.20;99.90;;;;;;4916871;29;20229;-80
2024/01/22 02:03:57;;;;;;;6.18;4.95;;;6.30;99.90;;;;;;4916822;29;20702;-81
2024/01/22 02:06:24;;;;;;;4.78;4.20;;;6.30;99.90;;;;;;4916974;29;20240;-81
2024/01/22 02:08:51;;;;;;;5.15;3.95;;;6.30;99.90;;;;;;4916793;29;20237;-80
2024/01/22 02:11:22;;;;;;;4.20;3.80;;;6.30;99.90;;;;;;4917146;29;20225;-80
2024/01/22 02:13:49;;;;;;;5.00;4.45;;;6.40;99.90;;;;;;4916172;29;20233;-80
2024/01/22 02:16:16;;;;;;;5.95;4.07;;;6.30;99.90;;;;;;4916775;29;20225;-81
2024/01/22 02:18:45;;;;;;;5.65;4.60;;;6.40;99.90;;;;;;4916676;29;20221;-80
2024/01/22 02:21:13;;;;;;;4.90;4.50;;;6.40;99.90;;;;;;4916988;29;20304;-80
2024/01/22 02:23:41;;;;;;;4.93;4.38;;;6.40;99.90;;;;;;4916713;29;20284;-81
2024/01/22 02:26:08;;;;;;;4.90;4.40;;;6.40;99.90;;;;;;4917003;29;20698;-80
2024/01/22 02:28:35;;;;;;;4.80;4.00;;;6.40;99.90;;;;;;4917145;29;20229;-81
2024/01/22 02:31:02;;;;;;;4.60;4.15;;;6.40;99.90;;;;;;4916891;29;20221;-80
2024/01/22 02:33:29;;;;;;;6.40;4.45;;;6.50;99.90;;;;;;4917023;29;20566;-80
2024/01/22 02:35:56;;;;;;;5.70;5.20;;;6.50;99.90;;;;;;4916662;29;20241;-81
2024/01/22 02:38:23;;;;;;;4.88;3.85;;;6.60;99.90;;;;;;4917306;29;20233;-81
2024/01/22 02:40:52;;;;;;;5.22;4.35;;;6.60;99.90;;;;;;4916530;29;20319;-80
2024/01/22 02:43:34;;;;;;;4.75;4.00;;;6.60;99.90;;;;;;4918705;29;20230;-80
2024/01/22 02:46:01;;;;;;;6.70;4.35;;;6.60;99.90;;;;;;4911758;29;20233;-81
2024/01/22 02:48:28;;;;;;;5.32;4.45;;;6.60;99.90;;;;;;4920630;29;20225;-81
2024/01/22 02:50:55;;;;;;;4.72;4.28;;;6.70;99.90;;;;;;4919770;29;20231;-77
2024/01/22 02:53:22;;;;;;;5.20;4.40;;;6.70;99.90;;;;;;4920748;29;20255;-81
2024/01/22 02:55:51;;;;;;;5.13;4.05;;;6.70;99.90;;;;;;4920058;29;20230;-80
2024/01/22 02:58:18;;;;;;;6.30;5.13;;;6.80;99.90;;;;;;4920341;29;20217;-81
2024/01/22 03:00:45;;;;;;;5.88;4.80;;;6.90;99.90;;;;;;4919954;29;20699;-80
2024/01/22 03:03:12;;;;;;;4.45;4.00;;;6.90;99.90;;;;;;4919621;29;20238;-76
2024/01/22 03:05:40;;;;;;;5.03;4.63;;;6.90;99.90;;;;;;4919847;29;20768;-77
2024/01/22 03:08:08;;;;;;;5.20;4.53;;;6.90;99.90;;;;;;4919486;29;20276;-77
2024/01/22 03:10:35;;;;;;;3.63;3.28;;;7.00;99.90;;;;;;4919734;29;20225;-77
2024/01/22 03:13:03;;;;;;;4.88;4.45;;;7.10;99.90;;;;;;4919559;29;20225;-76
2024/01/22 03:15:30;;;;;;;5.40;4.28;;;7.00;99.90;;;;;;4919947;29;20234;-81
2024/01/22 03:17:57;;;;;;;5.50;4.40;;;7.00;99.90;;;;;;4919528;29;20230;-80
2024/01/22 03:20:25;;;;;;;6.50;4.78;;;7.00;99.90;;;;;;4919790;29;20280;-80
2024/01/22 03:22:52;;;;;;;7.47;4.68;;;7.00;99.90;;;;;;4919335;29;20237;-77
2024/01/22 03:25:19;;;;;;;5.28;4.65;;;7.00;99.90;;;;;;4919924;29;20759;-77
2024/01/22 03:27:45;;;;;;;5.00;4.40;;;7.10;99.90;;;;;;4919525;29;20260;-78
2024/01/22 03:30:14;;;;;;;6.07;4.60;;;7.10;99.90;;;;;;4919697;29;20680;-77
2024/01/22 03:32:41;;;;;;;5.28;4.13;;;7.10;99.90;;;;;;4919552;29;20492;-77
2024/01/22 03:35:08;;;;;;;4.80;4.40;;;7.10;99.90;;;;;;4919301;29;20232;-77
2024/01/22 03:37:35;;;;;;;5.15;3.70;;;7.20;99.90;;;;;;4919637;29;20229;-77
2024/01/22 03:40:02;;;;;;;4.85;3.65;;;7.20;99.90;;;;;;4919269;29;20233;-77
2024/01/22 03:42:29;;;;;;;4.65;4.25;;;7.30;99.90;;;;;;4919634;29;20221;-77
2024/01/22 03:44:56;;;;;;;5.30;3.75;;;7.30;99.90;;;;;;4918733;29;20229;-77
2024/01/22 03:47:25;;;;;;;6.00;4.35;;;7.30;99.90;;;;;;4919429;29;20232;-77
2024/01/22 03:49:54;;;;;;;4.50;4.10;;;7.30;99.90;;;;;;4919002;29;20233;-77
2024/01/22 03:52:21;;;;;;;4.22;3.90;;;7.30;99.90;;;;;;4919336;29;20618;-77
2024/01/22 03:54:50;;;;;;;5.68;4.55;;;7.20;99.90;;;;;;4918049;29;20668;-76
2024/01/22 03:57:17;;;;;;;4.95;3.92;;;7.30;99.90;;;;;;4919350;29;20232;-77
2024/01/22 03:59:48;;;;;;;6.05;5.13;;;7.30;99.90;;;;;;4919342;29;20244;-77
2024/01/22 04:02:15;;;;;;;5.95;5.05;;;7.40;99.90;;;;;;4918808;29;20599;-77
2024/01/22 04:04:44;;;;;;;5.70;4.25;;;7.40;99.90;;;;;;4919097;29;20237;-77
2024/01/22 04:07:11;;;;;;;6.65;3.80;;;7.40;99.90;;;;;;4918436;29;20271;-77
2024/01/22 04:09:38;;;;;;;4.70;4.10;;;7.40;99.90;;;;;;4919374;29;20232;-77
2024/01/22 04:12:05;;;;;;;4.97;3.53;;;7.40;99.90;;;;;;4918680;29;20232;-77
2024/01/22 04:14:32;;;;;;;5.20;4.28;;;7.40;99.90;;;;;;4919016;29;20240;-81
2024/01/22 04:16:59;;;;;;;6.45;3.50;;;7.40;99.90;;;;;;4918383;29;20244;-81
2024/01/22 04:19:26;;;;;;;4.00;3.58;;;7.40;99.90;;;;;;4918724;29;20233;-81
2024/01/22 04:21:55;;;;;;;4.00;3.60;;;7.50;99.90;;;;;;4917615;29;20288;-77
2024/01/22 04:24:22;;;;;;;4.20;3.80;;;7.50;99.90;;;;;;4918572;29;20276;-81
2024/01/22 04:26:49;;;;;;;4.55;3.90;;;7.60;99.90;;;;;;4918697;29;20240;-80
2024/01/22 04:29:16;;;;;;;4.10;3.70;;;7.50;99.90;;;;;;4918323;29;20551;-77
2024/01/22 04:31:43;;;;;;;6.40;4.20;;;7.50;99.90;;;;;;4918756;29;20237;-77
2024/01/22 04:34:10;;;;;;;6.53;3.72;;;7.50;99.90;;;;;;4918138;29;20575;-80
2024/01/22 04:36:37;;;;;;;5.90;4.00;;;7.50;99.90;;;;;;4918662;29;20240;-81
2024/01/22 04:39:05;;;;;;;5.30;3.53;;;7.50;99.90;;;;;;4918129;29;20229;-80
2024/01/22 04:41:32;;;;;;;6.57;3.40;;;7.50;99.90;;;;;;4918948;29;20569;-79
2024/01/22 04:43:59;;;;;;;4.75;3.53;;;7.60;99.90;;;;;;4917101;29;20279;-77
2024/01/22 04:46:30;;;;;;;4.32;3.30;;;7.60;99.90;;;;;;4918765;29;20688;-77
2024/01/22 04:48:57;;;;;;;7.32;4.30;;;7.70;99.90;;;;;;4918053;29;20284;-80
2024/01/22 04:51:24;;;;;;;3.85;3.05;;;7.70;99.90;;;;;;4918339;29;20555;-80
2024/01/22 04:53:52;;;;;;;8.70;3.78;;;7.70;99.90;;;;;;4918291;29;20241;-81
2024/01/22 04:56:20;;;;;;;7.18;3.75;;;7.70;99.90;;;;;;4917805;29;20679;-80
2024/01/22 04:58:47;;;;;;;5.45;3.42;;;7.70;99.90;;;;;;4918273;29;20233;-80
2024/01/22 05:01:14;;;;;;;4.53;3.67;;;7.70;99.90;;;;;;4917815;29;20692;-80
2024/01/22 05:03:41;;;;;;;3.38;3.08;;;7.70;99.90;;;;;;4918052;29;20702;-81
2024/01/22 05:06:08;;;;;;;3.22;2.97;;;7.70;99.90;;;;;;4916456;29;20236;-80
2024/01/22 05:08:35;;;;;;;3.72;3.10;;;7.60;99.90;;;;;;4918172;29;20240;-80
2024/01/22 05:11:02;;;;;;;4.00;3.17;;;7.60;99.90;;;;;;4917672;29;20222;-81
2024/01/22 05:13:31;;;;;;;3.35;3.10;;;7.60;99.90;;;;;;4917979;29;20233;-80
2024/01/22 05:15:58;;;;;;;3.65;3.35;;;7.60;99.90;;;;;;4917883;29;20234;-77
2024/01/22 05:18:25;;;;;;;3.10;2.90;;;7.60;99.90;;;;;;4917707;29;20233;-81
2024/01/22 05:20:52;;;;;;;3.35;2.70;;;7.60;99.90;;;;;;4917727;29;20563;-81
2024/01/22 05:23:19;;;;;;;3.90;3.15;;;7.60;99.90;;;;;;4917386;29;20237;-81
2024/01/22 05:25:46;;;;;;;7.63;3.00;;;7.60;99.90;;;;;;4917955;29;20225;-81
2024/01/22 05:28:13;;;;;;;3.50;3.13;;;7.60;99.90;;;;;;4916909;29;20240;-77
2024/01/22 05:30:41;;;;;;;5.35;3.05;;;7.60;99.90;;;;;;4917305;29;20323;-77
2024/01/22 05:33:08;;;;;;;4.35;3.40;;;7.60;99.90;;;;;;4916438;29;20229;-78
2024/01/22 05:35:36;;;;;;;3.03;2.67;;;7.60;99.90;;;;;;4917476;29;20615;-80
2024/01/22 05:38:03;;;;;;;3.50;3.20;;;7.60;99.90;;;;;;4917508;29;20599;-80
2024/01/22 05:40:30;;;;;;;2.55;2.35;;;7.60;99.90;;;;;;4916980;29;20708;-80
2024/01/22 05:42:57;;;;;;;3.50;2.55;;;7.60;99.90;;;;;;4917199;29;20240;-77
2024/01/22 05:45:24;;;;;;;3.58;2.67;;;7.60;99.90;;;;;;4917160;29;20226;-76
2024/01/22 05:47:52;;;;;;;3.88;2.67;;;7.60;99.90;;;;;;4917453;29;20243;-77
2024/01/22 05:50:19;;;;;;;3.03;2.78;;;7.70;99.90;;;;;;4916893;29;20233;-77
2024/01/22 05:52:46;;;;;;;4.53;3.00;;;7.70;99.90;;;;;;4917307;29;20272;-77
2024/01/22 05:55:14;;;;;;;3.40;3.10;;;7.80;99.90;;;;;;4916257;29;20240;-77
2024/01/22 05:57:41;;;;;;;3.45;2.47;;;7.80;99.90;;;;;;4916998;29;20233;-77
2024/01/22 06:00:12;;;;;;;4.20;2.83;;;7.80;99.90;;;;;;4916311;29;20233;-77
2024/01/22 06:02:40;;;;;;;3.03;2.40;;;7.90;99.90;;;;;;4917151;29;20237;-77
2024/01/22 06:05:09;;;;;;;2.88;2.40;;;8.00;99.90;;;;;;4916810;29;20242;-77
2024/01/22 06:07:37;;;;;;;3.42;2.30;;;8.00;99.90;;;;;;4917001;29;20225;-76
2024/01/22 06:10:05;;;;;;;4.60;3.00;;;8.10;99.90;;;;;;4916716;29;20241;-78
2024/01/22 06:12:32;;;;;;;2.80;1.95;;;8.10;99.90;;;;;;4916909;29;20229;-77
2024/01/22 06:14:59;;;;;;;5.78;3.20;;;8.10;99.90;;;;;;4917018;29;20324;-77
2024/01/22 06:17:30;;;;;;;6.03;4.70;;;8.10;99.90;;;;;;4916069;29;20260;-77
2024/01/22 06:19:59;;;;;;;2.55;2.28;;;8.20;99.90;;;;;;4916783;29;20700;-77
2024/01/22 06:22:30;;;;;;;2.70;1.90;;;8.20;99.90;;;;;;4916568;29;20286;-76
2024/01/22 06:24:57;;;;;;;2.15;1.95;;;8.20;99.90;;;;;;4916699;29;20237;-76
2024/01/22 06:27:24;;;;;;;2.70;1.75;;;8.30;99.90;;;;;;4916444;29;20253;-76
2024/01/22 06:29:53;;;;;;;2.22;1.80;;;8.30;99.90;;;;;;4916675;29;20225;-78
2024/01/22 06:32:20;;;;;;;2.45;2.25;;;8.40;99.90;;;;;;4915927;29;20692;-75
2024/01/22 06:34:48;;;;;;;2.53;1.90;;;8.40;99.90;;;;;;4917017;29;20692;-77
2024/01/22 06:37:15;;;;;;;3.35;2.08;;;8.50;99.90;;;;;;4916771;29;20240;-77
2024/01/22 06:39:45;;;;;;;4.18;2.20;;;8.50;99.90;;;;;;4916978;29;20280;-75
2024/01/22 06:42:12;;;;;;;2.50;2.03;;;8.50;99.90;;;;;;4915998;29;20308;-76
2024/01/22 06:44:39;;;;;;;2.25;2.05;;;8.50;99.90;;;;;;4916860;29;20542;-76
2024/01/22 06:47:07;;;;;;;5.15;1.60;;;8.50;99.90;;;;;;4916629;29;20225;-76
2024/01/22 06:49:34;;;;;;;4.57;2.00;;;8.60;99.90;;;;;;4916888;29;20560;-76
2024/01/22 06:52:01;;;;;;;2.88;2.30;;;8.60;99.90;;;;;;4916832;29;20565;-76
2024/01/22 06:54:28;;;;;;;3.47;1.92;;;8.70;99.90;;;;;;4916408;29;20229;-76
2024/01/22 06:56:56;;;;;;;2.78;1.70;;;8.70;99.90;;;;;;4916773;29;20232;-76
2024/01/22 06:59:23;;;;;;;5.78;3.00;;;8.60;99.90;;;;;;4916133;29;20229;-76
2024/01/22 07:01:52;;;;;;;5.20;2.95;;;8.70;99.90;;;;;;4916298;29;20226;-76
2024/01/22 07:04:19;;;;;;;7.50;3.15;;;8.70;99.90;;;;;;4916058;29;20631;-76
2024/01/22 07:06:46;;;;;;;6.30;3.90;;;8.70;99.90;;;;;;4916560;29;20619;-75
2024/01/22 07:09:13;;;;;;;5.22;3.72;;;8.70;99.90;;;;;;4916077;29;20225;-79
2024/01/22 07:11:42;;;;;;;6.03;4.35;;;8.70;99.90;;;;;;4916679;29;20236;-79
2024/01/22 07:14:10;;;;;;;2.97;1.92;;;8.80;99.90;;;;;;4916705;29;20229;-80
2024/01/22 07:16:37;;;;;;;2.33;1.88;;;8.80;99.90;;;;;;4916357;29;20304;-80
2024/01/22 07:19:04;;;;;;;3.05;1.60;;;8.80;99.90;;;;;;4916307;29;20225;-81
2024/01/22 07:21:33;;;;;;;1.70;1.60;;;8.90;99.90;;;;;;4915703;29;20317;-80
2024/01/22 07:24:00;;;;;;;2.53;2.33;;;8.90;99.90;;;;;;4916309;29;20249;-79
2024/01/22 07:26:27;;;;;;;2.15;1.50;;;8.90;99.90;;;;;;4915765;29;20688;-79
2024/01/22 07:28:55;;;;;;;2.10;1.88;;;8.90;99.90;;;;;;4916787;29;20255;-80
2024/01/22 07:31:23;;;;;;;3.05;1.90;;;9.00;99.90;;;;;;4918347;29;20240;-80
2024/01/22 07:33:52;;;;;;;2.38;1.90;;;9.00;99.90;;;;;;4919290;29;20553;-80
2024/01/22 07:36:19;;;;;;;2.28;1.70;;;9.10;99.90;;;;;;4918691;29;20232;-78
2024/01/22 07:38:47;;;;;;;1.90;1.70;;;9.10;99.90;;;;;;4919740;29;20225;-76
2024/01/22 07:41:17;;;;;;;1.88;1.40;;;9.10;99.90;;;;;;4919364;29;20221;-76
2024/01/22 07:43:44;;;;;;;2.88;2.10;;;9.20;99.90;;;;;;4919122;29;20222;-76
2024/01/22 07:46:12;;;;;;;3.95;1.65;;;9.20;99.90;;;;;;4919763;29;20562;-79
2024/01/22 07:48:41;;;;;;;1.95;1.85;;;9.20;99.90;;;;;;4919234;29;20280;-76
2024/01/22 07:51:08;;;;;;;3.83;2.38;;;9.30;99.90;;;;;;4919439;29;20221;-80
2024/01/22 07:53:39;;;;;;;1.90;1.40;;;9.20;99.90;;;;;;4918996;29;20233;-80
2024/01/22 07:56:06;;;;;;;1.73;1.63;;;9.20;99.90;;;;;;4919272;29;20569;-77
2024/01/22 07:58:35;;;;;;;1.65;1.52;;;9.30;99.90;;;;;;4919262;29;20237;-77
2024/01/22 08:01:03;;;;;;;2.22;2.00;;;9.30;99.90;;;;;;4918936;29;20304;-77
2024/01/22 08:03:30;;;;;;;1.80;1.60;;;9.30;99.90;;;;;;4918495;29;20238;-77
2024/01/22 08:06:00;;;;;;;1.85;1.67;;;9.30;99.90;;;;;;4918700;29;20241;-76
2024/01/22 08:08:27;;;;;;;2.10;2.00;;;9.30;99.90;;;;;;4919059;29;20245;-80
2024/01/22 08:10:55;;;;;;;3.53;2.20;;;9.30;99.90;;;;;;4919685;29;20662;-80
2024/01/22 08:13:25;;;;;;;3.20;1.70;;;9.20;99.90;;;;;;4918974;29;20756;-80
2024/01/22 08:15:53;;;;;;;1.65;1.55;;;9.20;99.90;;;;;;4918244;29;20240;-77
2024/01/22 08:18:20;;;;;;;2.10;1.63;;;9.20;99.90;;;;;;4919763;29;20229;-77
2024/01/22 08:20:47;;;;;;;8.32;3.85;;;9.20;99.90;;;;;;4918358;29;20297;-80
2024/01/22 08:23:16;;;;;;;7.57;5.57;;;9.10;99.90;;;;;;4918035;29;20225;-80
2024/01/22 08:25:43;;;;;;;3.92;3.53;;;9.00;99.90;;;;;;4918473;29;20229;-80
2024/01/22 08:28:10;;;;;;;3.25;2.85;;;8.90;99.90;;;;;;4918800;29;20238;-80
2024/01/22 08:30:37;;;;;;;4.18;1.90;;;8.90;99.90;;;;;;4908362;29;20300;-78
2024/01/22 08:33:05;;;;;;;2.10;1.70;;;8.80;99.90;;;;;;4918337;29;20234;-77
2024/01/22 08:35:32;;;;;;;3.38;2.10;;;8.80;99.90;;;;;;4918403;29;20308;-77
2024/01/22 08:37:59;;;;;;;2.45;1.70;;;8.70;99.90;;;;;;4917650;29;20222;-77
2024/01/22 08:40:27;;;;;;;3.42;2.13;;;8.70;99.90;;;;;;4918126;29;20301;-77
2024/01/22 08:42:56;;;;;;;2.15;1.25;;;8.60;99.90;;;;;;4917777;29;20423;-81
2024/01/22 08:45:24;;;;;;;3.00;2.03;;;8.60;99.90;;;;;;4917941;29;20673;-78
2024/01/22 08:47:52;;;;;;;2.97;1.90;;;8.50;99.90;;;;;;4917859;29;20229;-81
2024/01/22 08:50:21;;;;;;;2.35;2.15;;;8.40;99.90;;;;;;4918275;29;20263;-81
2024/01/22 08:52:48;;;;;;;2.83;1.70;;;8.40;99.90;;;;;;4917553;29;20257;-77
2024/01/22 08:55:18;;;;;;;1.80;1.55;;;8.30;99.90;;;;;;4918376;29;20226;-81
2024/01/22 08:57:47;;;;;;;3.05;2.10;;;8.30;99.90;;;;;;4917848;29;20241;-81
2024/01/22 09:00:15;;;;;;;3.25;2.40;;;8.20;99.90;;;;;;4918145;29;20229;-80
2024/01/22 09:02:43;;;;;;;2.20;1.90;;;8.30;99.90;;;;;;4918186;29;20301;-77
2024/01/22 09:05:11;;;;;;;4.70;2.20;;;8.30;99.90;;;;;;4908822;29;20258;-77
2024/01/22 09:07:39;;;;;;;2.22;1.70;;;8.20;99.90;;;;;;4918184;29;20234;-77
2024/01/22 09:10:08;;;;;;;2.15;1.80;;;8.20;99.90;;;;;;4918034;29;20240;-78
2024/01/22 09:12:36;;;;;;;2.85;1.80;;;8.20;99.90;;;;;;4918025;29;20289;-77
2024/01/22 09:15:05;;;;;;;4.82;2.38;;;8.30;99.90;;;;;;4917383;29;20225;-77
2024/01/22 09:17:33;;;;;;;3.08;2.13;;;8.30;99.90;;;;;;4918105;29;20257;-81
2024/01/22 09:20:00;;;;;;;2.85;2.30;;;8.30;99.90;;;;;;4916885;29;20264;-81
2024/01/22 09:22:28;;;;;;;3.60;1.60;;;8.30;99.90;;;;;;4917992;29;20553;-81
2024/01/22 09:24:56;;;;;;;2.22;1.67;;;8.20;99.90;;;;;;4917260;29;20261;-80
2024/01/22 09:27:23;;;;;;;1.77;1.60;;;8.20;99.90;;;;;;4917851;29;20229;-81
2024/01/22 09:29:50;;;;;;;1.70;1.60;;;8.30;99.90;;;;;;4917170;29;20296;-77
2024/01/22 09:32:20;;;;;;;2.47;2.28;;;8.30;99.90;;;;;;4918028;29;20228;-77
2024/01/22 09:34:47;;;;;;;6.40;4.90;;;8.30;99.90;;;;;;4917036;29;20316;-78
2024/01/22 09:37:14;;;;;;;4.47;4.00;;;8.40;99.90;;;;;;4917688;29;20225;-77
2024/01/22 09:39:44;;;;;;;2.92;2.10;;;8.40;99.90;;;;;;4917529;29;20233;-81
2024/01/22 09:42:12;;;;;;;3.65;1.92;;;8.40;99.90;;;;;;4909115;29;20288;-80
2024/01/22 09:44:40;;;;;;;2.22;2.03;;;8.40;99.90;;;;;;4908260;29;20239;-77
2024/01/22 09:47:08;;;;;;;2.30;1.83;;;8.40;99.90;;;;;;4906257;29;20234;-77
2024/01/22 09:49:37;;;;;;;1.80;1.55;;;8.50;99.90;;;;;;4917580;29;20699;-77
2024/01/22 09:52:04;;;;;;;3.22;2.20;;;8.50;99.90;;;;;;4915659;29;20234;-81
2024/01/22 09:54:32;;;;;;;4.65;2.47;;;8.50;99.90;;;;;;4916770;29;20230;-77
2024/01/22 09:57:02;;;;;;;2.25;1.98;;;8.50;99.90;;;;;;4916834;29;20237;-81
2024/01/22 09:59:33;;;;;;;2.20;1.40;;;8.60;99.90;;;;;;4917671;29;20297;-77
2024/01/22 10:02:01;;;;;;;2.45;1.63;;;8.60;99.90;;;;;;4916601;29;20229;-77
2024/01/22 10:04:33;;;;;;;2.75;1.58;;;8.70;99.90;;;;;;4915106;29;20635;-81
2024/01/22 10:07:04;;;;;;;1.67;1.58;;;8.70;99.90;;;;;;4914831;29;20229;-77
2024/01/22 10:09:35;;;;;;;4.00;2.33;;;8.80;99.90;;;;;;4916697;29;20548;-79
2024/01/22 10:12:05;;;;;;;2.88;2.25;;;8.80;99.90;;;;;;4915705;29;20260;-77
2024/01/22 10:14:35;;;;;;;2.75;1.70;;;8.90;99.90;;;;;;4907472;29;20679;-81
2024/01/22 10:17:16;;;;;;;3.80;1.80;;;8.90;99.90;;;;;;4917005;29;20312;-77
2024/01/22 10:19:44;;;;;;;2.13;1.60;;;9.00;99.90;;;;;;4917319;29;20259;-78
2024/01/22 10:22:13;;;;;;;2.85;1.33;;;9.00;99.90;;;;;;4917071;29;20233;-81
2024/01/22 10:24:41;;;;;;;2.00;1.60;;;9.10;99.90;;;;;;4916995;29;20311;-77
2024/01/22 10:27:15;;;;;;;4.60;1.85;;;9.10;99.90;;;;;;4916542;29;20605;-80
2024/01/22 10:29:45;;;;;;;2.08;1.38;;;9.20;99.90;;;;;;4917430;29;20236;-80
2024/01/22 10:32:12;;;;;;;3.08;1.70;;;9.20;99.90;;;;;;4915553;29;20233;-76
2024/01/22 10:34:50;;;;;;;3.88;3.00;;;9.30;99.90;;;;;;4908744;29;20225;-76
2024/01/22 10:37:19;;;;;;;4.78;4.38;;;9.30;99.90;;;;;;4913246;29;20233;-77
2024/01/22 10:39:51;;;;;;;1.90;1.70;;;9.40;99.90;;;;;;4916521;29;20240;-76
2024/01/22 10:42:18;;;;;;;2.88;1.10;;;9.50;99.90;;;;;;4915189;29;20629;-76
2024/01/22 10:44:47;;;;;;;1.85;1.48;;;9.50;99.90;;;;;;4916897;29;20240;-76
2024/01/22 10:47:15;;;;;;;2.92;1.58;;;9.50;99.90;;;;;;4916074;29;20233;-76
2024/01/22 10:49:44;;;;;;;2.05;1.77;;;9.50;99.90;;;;;;4916682;29;20261;-76
2024/01/22 10:52:12;;;;;;;1.75;1.40;;;9.50;99.90;;;;;;4906496;29;20626;-76
2024/01/22 10:54:42;;;;;;;1.55;1.42;;;9.60;99.90;;;;;;4916551;29;20241;-80
2024/01/22 10:57:11;;;;;;;1.60;1.30;;;9.60;99.90;;;;;;4916329;29;20233;-80
2024/01/22 10:59:48;;;;;;;2.50;1.50;;;9.60;99.90;;;;;;4916763;29;20703;-80
2024/01/22 11:02:18;;;;;;;2.10;1.88;;;9.70;99.90;;;;;;4916281;29;20243;-81
2024/01/22 11:04:46;;;;;;;1.33;1.23;;;9.70;99.90;;;;;;4908909;29;20233;-81
2024/01/22 11:07:14;;;;;;;1.77;1.40;;;9.70;99.90;;;;;;4909549;29;20241;-82
2024/01/22 11:09:43;;;;;;;1.50;1.30;;;9.80;99.90;;;;;;4920159;29;20229;-81
2024/01/22 11:12:12;;;;;;;1.10;1.00;;;9.80;99.90;;;;;;4919370;29;20324;-77
2024/01/22 11:14:44;;;;;;;2.58;1.50;;;9.80;99.90;;;;;;4920413;29;20225;-82
2024/01/22 11:17:13;;;;;;;2.30;1.33;;;9.80;99.90;;;;;;4915524;29;20292;-81
2024/01/22 11:19:40;;;;;;;2.05;1.45;;;9.90;99.90;;;;;;4920039;29;20313;-77
2024/01/22 11:22:16;;;;;;;1.60;1.30;;;10.00;99.90;;;;;;4919282;29;20242;-80
2024/01/22 11:25:02;;;;;;;1.10;1.00;;;10.00;99.90;;;;;;4920609;29;20233;-78
2024/01/22 11:27:42;;;;;;;1.92;1.10;;;10.10;99.90;;;;;;4919319;29;20247;-78
2024/01/22 11:30:29;;;;;;;2.50;1.60;;;10.10;99.90;;;;;;4919278;29;20232;-77
2024/01/22 11:32:56;;;;;;;3.60;1.40;;;10.10;99.90;;;;;;4919350;29;20296;-77
2024/01/22 11:35:34;;;;;;;1.95;1.30;;;10.10;99.90;;;;;;4919855;29;20236;-77
2024/01/22 11:38:02;;;;;;;1.40;1.30;;;10.10;99.90;;;;;;4918904;29;20229;-78
2024/01/22 11:40:52;;;;;;;1.35;1.20;;;10.20;99.90;;;;;;4919972;29;20237;-77
2024/01/22 11:43:21;;;;;;;1.83;1.30;;;10.20;99.90;;;;;;4919252;29;20240;-81
2024/01/22 11:45:51;;;;;;;2.35;1.13;;;10.20;99.90;;;;;;4919521;29;20320;-81
2024/01/22 11:48:24;;;;;;;2.05;1.85;;;10.20;99.90;;;;;;4919139;29;20304;-81
2024/01/22 11:50:59;;;;;;;1.10;1.00;;;10.30;99.90;;;;;;4919547;29;20229;-81
2024/01/22 11:53:32;;;;;;;1.60;1.33;;;10.30;99.90;;;;;;4919143;29;20673;-80
2024/01/22 11:56:07;;;;;;;1.63;1.20;;;10.30;99.90;;;;;;4918805;29;20232;-80
2024/01/22 11:58:35;;;;;;;5.72;4.03;;;10.40;99.90;;;;;;4911467;29;20252;-80
2024/01/22 12:01:09;;;;;;;3.65;2.45;;;10.40;99.90;;;;;;4919503;29;20615;-81
2024/01/22 12:03:37;;;;;;;2.08;1.33;;;10.50;99.90;;;;;;4909532;29;20229;-80
2024/01/22 12:06:06;;;;;;;3.72;1.83;;;10.50;99.90;;;;;;4917875;29;20682;-75
2024/01/22 12:08:34;;;;;;;1.80;1.45;;;10.40;99.90;;;;;;4918494;29;20236;-76
2024/01/22 12:11:14;;;;;;;2.85;1.33;;;10.50;99.90;;;;;;4918261;29;20226;-76
2024/01/22 12:13:45;;;;;;;1.77;1.55;;;10.50;99.90;;;;;;4913897;29;20230;-77
2024/01/22 12:16:15;;;;;;;6.40;4.30;;;10.60;99.90;;;;;;4906921;29;20645;-77
2024/01/22 12:18:43;;;;;;;7.07;4.97;;;10.50;99.90;;;;;;4918208;29;20280;-80
2024/01/22 12:21:11;;;;;;;1.70;1.60;;;10.60;99.90;;;;;;4913648;29;20221;-80
2024/01/22 12:23:39;;;;;;;2.28;1.50;;;10.60;99.90;;;;;;4917085;29;20266;-80
2024/01/22 12:26:14;;;;;;;4.45;1.55;;;10.60;99.90;;;;;;4899663;29;20312;-80
2024/01/22 12:28:41;;;;;;;1.17;1.00;;;10.70;99.90;;;;;;4900581;29;20233;-80
2024/01/22 12:31:09;;;;;;;1.20;1.10;;;10.70;99.90;;;;;;4902945;29;20221;-80
2024/01/22 12:33:36;;;;;;;1.90;1.15;;;10.70;99.90;;;;;;4915668;29;20233;-80
2024/01/22 12:36:10;;;;;;;1.15;1.00;;;10.80;99.90;;;;;;4912257;29;20353;-80
2024/01/22 12:38:47;;;;;;;3.85;2.75;;;10.80;99.90;;;;;;4904535;29;20240;-79
2024/01/22 12:41:18;;;;;;;6.15;4.22;;;10.80;99.90;;;;;;4912593;29;20247;-80
2024/01/22 12:43:46;;;;;;;3.58;1.55;;;10.80;99.90;;;;;;4898930;29;20234;-80
2024/01/22 12:46:18;;;;;;;1.70;1.13;;;10.80;99.90;;;;;;4901617;29;20226;-80
2024/01/22 12:48:45;;;;;;;1.60;1.23;;;10.80;99.90;;;;;;4903580;29;20313;-80
2024/01/22 12:51:14;;;;;;;1.15;1.05;;;10.80;99.90;;;;;;4913355;29;20229;-81
2024/01/22 12:53:42;;;;;;;5.10;1.80;;;10.70;99.90;;;;;;4899010;29;20751;-80
2024/01/22 12:56:09;;;;;;;1.52;1.30;;;10.80;99.90;;;;;;4914357;29;20217;-80
2024/01/22 12:58:38;;;;;;;1.30;1.20;;;10.80;99.90;;;;;;4913647;29;20253;-77
2024/01/22 13:01:06;;;;;;;3.53;3.00;;;10.80;99.90;;;;;;4901470;29;20569;-78